sensor_id;sensor_type;location;lat;lon;timestamp;temperature;humidity
2893;DHT22;1456;51.840;12.184;2022-08-19T00:01:40;20.40;99.90
2893;DHT22;1456;51.840;12.184;2022-08-19T00:04:09;20.40;99.90
2893;DHT22;1456;51.840;12.184;2022-08-19T00:06:36;20.40;99.90
2893;DHT22;1456;51.840;12.184;2022-08-19T00:09:02;20.40;99.90
2893;DHT22;1456;51.840;12.184;2022-08-19T00:11:28;20.50;99.90
2893;DHT22;1456;51.840;12.184;2022-08-19T00:13:54;20.50;99.90
2893;DHT22;1456;51.840;12.184;2022-08-19T00:16:22;20.50;99.90
2893;DHT22;1456;51.840;12.184;2022-08-19T00:18:48;20.50;99.90
2893;DHT22;1456;51.840;12.184;2022-08-19T00:21:14;20.60;99.90
2893;DHT22;1456;51.840;12.184;2022-08-19T00:23:42;20.60;99.90
2893;DHT22;1456;51.840;12.184;2022-08-19T00:26:08;20.60;99.90
2893;DHT22;1456;51.840;12.184;2022-08-19T00:28:34;20.60;99.90
2893;DHT22;1456;51.840;12.184;2022-08-19T00:31:01;20.60;99.90
2893;DHT22;1456;51.840;12.184;2022-08-19T00:33:28;20.60;99.90
2893;DHT22;1456;51.840;12.184;2022-08-19T00:35:58;20.60;99.90
2893;DHT22;1456;51.840;12.184;2022-08-19T00:38:24;20.60;99.90
2893;DHT22;1456;51.840;12.184;2022-08-19T00:40:49;20.50;99.90
2893;DHT22;1456;51.840;12.184;2022-08-19T00:43:18;20.50;99.90
2893;DHT22;1456;51.840;12.184;2022-08-19T00:45:45;20.50;99.90
2893;DHT22;1456;51.840;12.184;2022-08-19T00:48:10;20.50;99.90
2893;DHT22;1456;51.840;12.184;2022-08-19T00:50:36;20.50;99.90
2893;DHT22;1456;51.840;12.184;2022-08-19T00:53:05;20.50;99.90
2893;DHT22;1456;51.840;12.184;2022-08-19T00:55:33;20.60;99.90
2893;DHT22;1456;51.840;12.184;2022-08-19T00:58:02;20.50;99.90
2893;DHT22;1456;51.840;12.184;2022-08-19T01:00:31;20.50;99.90
2893;DHT22;1456;51.840;12.184;2022-08-19T01:02:57;20.50;99.90
2893;DHT22;1456;51.840;12.184;2022-08-19T01:05:24;20.50;99.90
2893;DHT22;1456;51.840;12.184;2022-08-19T01:07:53;20.50;99.90
2893;DHT22;1456;51.840;12.184;2022-08-19T01:10:20;20.60;99.90
2893;DHT22;1456;51.840;12.184;2022-08-19T01:12:47;20.70;99.90
2893;DHT22;1456;51.840;12.184;2022-08-19T01:15:17;20.70;99.90
2893;DHT22;1456;51.840;12.184;2022-08-19T01:17:43;20.70;99.90
2893;DHT22;1456;51.840;12.184;2022-08-19T01:20:11;20.70;99.90
2893;DHT22;1456;51.840;12.184;2022-08-19T01:22:44;20.90;99.90
2893;DHT22;1456;51.840;12.184;2022-08-19T01:25:12;20.90;99.90
2893;DHT22;1456;51.840;12.184;2022-08-19T01:27:46;20.90;99.90
2893;DHT22;1456;51.840;12.184;2022-08-19T01:30:14;20.90;99.90
2893;DHT22;1456;51.840;12.184;2022-08-19T01:32:40;20.90;99.90
2893;DHT22;1456;51.840;12.184;2022-08-19T01:35:08;20.90;99.90
2893;DHT22;1456;51.840;12.184;2022-08-19T01:37:51;20.90;99.90
2893;DHT22;1456;51.840;12.184;2022-08-19T01:40:19;20.90;99.90
2893;DHT22;1456;51.840;12.184;2022-08-19T01:42:49;20.90;99.90
2893;DHT22;1456;51.840;12.184;2022-08-19T01:45:15;20.90;99.90
2893;DHT22;1456;51.840;12.184;2022-08-19T01:47:41;21.00;99.90
2893;DHT22;1456;51.840;12.184;2022-08-19T01:50:09;21.00;99.90
2893;DHT22;1456;51.840;12.184;2022-08-19T01:52:36;21.00;99.90
2893;DHT22;1456;51.840;12.184;2022-08-19T01:55:02;21.00;99.90
2893;DHT22;1456;51.840;12.184;2022-08-19T01:57:28;21.00;99.90
2893;DHT22;1456;51.840;12.184;2022-08-19T01:59:53;21.00;99.90
2893;DHT22;1456;51.840;12.184;2022-08-19T02:02:20;21.00;99.90
2893;DHT22;1456;51.840;12.184;2022-08-19T02:04:45;20.90;99.90
2893;DHT22;1456;51.840;12.184;2022-08-19T02:07:11;20.80;99.90
2893;DHT22;1456;51.840;12.184;2022-08-19T02:09:38;20.70;99.90
2893;DHT22;1456;51.840;12.184;2022-08-19T02:12:06;20.60;99.90
2893;DHT22;1456;51.840;12.184;2022-08-19T02:14:34;20.50;99.90
2893;DHT22;1456;51.840;12.184;2022-08-19T02:17:00;20.40;99.90
2893;DHT22;1456;51.840;12.184;2022-08-19T02:19:26;20.30;99.90
2893;DHT22;1456;51.840;12.184;2022-08-19T02:21:51;20.30;99.90
2893;DHT22;1456;51.840;12.184;2022-08-19T02:24:17;20.20;99.90
2893;DHT22;1456;51.840;12.184;2022-08-19T02:26:44;20.20;99.90
2893;DHT22;1456;51.840;12.184;2022-08-19T02:29:10;20.20;99.90
2893;DHT22;1456;51.840;12.184;2022-08-19T02:31:36;20.20;99.90
2893;DHT22;1456;51.840;12.184;2022-08-19T02:34:02;20.20;99.90
2893;DHT22;1456;51.840;12.184;2022-08-19T02:36:28;20.10;99.90
2893;DHT22;1456;51.840;12.184;2022-08-19T02:38:53;20.10;99.90
2893;DHT22;1456;51.840;12.184;2022-08-19T02:41:21;20.10;99.90
2893;DHT22;1456;51.840;12.184;2022-08-19T02:43:47;20.00;99.90
2893;DHT22;1456;51.840;12.184;2022-08-19T02:46:20;20.00;99.90
2893;DHT22;1456;51.840;12.184;2022-08-19T02:48:54;20.00;99.90
2893;DHT22;1456;51.840;12.184;2022-08-19T02:51:31;20.00;99.90
2893;DHT22;1456;51.840;12.184;2022-08-19T02:53:56;20.00;99.90
2893;DHT22;1456;51.840;12.184;2022-08-19T02:56:23;20.00;99.90
2893;DHT22;1456;51.840;12.184;2022-08-19T02:58:51;19.90;99.90
2893;DHT22;1456;51.840;12.184;2022-08-19T03:01:20;19.90;99.90
2893;DHT22;1456;51.840;12.184;2022-08-19T03:03:47;19.90;99.90
2893;DHT22;1456;51.840;12.184;2022-08-19T03:06:14;19.80;99.90
2893;DHT22;1456;51.840;12.184;2022-08-19T03:08:41;19.80;99.90
2893;DHT22;1456;51.840;12.184;2022-08-19T03:11:15;19.80;99.90
2893;DHT22;1456;51.840;12.184;2022-08-19T03:13:42;19.80;99.90
2893;DHT22;1456;51.840;12.184;2022-08-19T03:16:08;19.80;99.90
2893;DHT22;1456;51.840;12.184;2022-08-19T03:18:35;19.80;99.90
2893;DHT22;1456;51.840;12.184;2022-08-19T03:21:03;19.80;99.90
2893;DHT22;1456;51.840;12.184;2022-08-19T03:23:29;19.80;99.90
2893;DHT22;1456;51.840;12.184;2022-08-19T03:25:55;19.90;99.90
2893;DHT22;1456;51.840;12.184;2022-08-19T03:28:21;19.90;99.90
2893;DHT22;1456;51.840;12.184;2022-08-19T03:30:57;19.90;99.90
2893;DHT22;1456;51.840;12.184;2022-08-19T03:33:23;20.00;99.90
2893;DHT22;1456;51.840;12.184;2022-08-19T03:38:28;20.00;99.90
2893;DHT22;1456;51.840;12.184;2022-08-19T03:40:53;20.00;99.90
2893;DHT22;1456;51.840;12.184;2022-08-19T03:43:21;20.00;99.90
2893;DHT22;1456;51.840;12.184;2022-08-19T03:45:46;20.00;99.90
2893;DHT22;1456;51.840;12.184;2022-08-19T03:48:14;20.10;99.90
2893;DHT22;1456;51.840;12.184;2022-08-19T03:50:40;20.10;99.90
2893;DHT22;1456;51.840;12.184;2022-08-19T03:53:06;20.10;99.90
2893;DHT22;1456;51.840;12.184;2022-08-19T03:55:34;20.10;99.90
2893;DHT22;1456;51.840;12.184;2022-08-19T03:58:03;20.20;99.90
2893;DHT22;1456;51.840;12.184;2022-08-19T04:00:31;20.10;99.90
2893;DHT22;1456;51.840;12.184;2022-08-19T04:02:58;20.10;99.90
2893;DHT22;1456;51.840;12.184;2022-08-19T04:05:26;20.10;99.90
2893;DHT22;1456;51.840;12.184;2022-08-19T04:07:53;20.10;99.90
2893;DHT22;1456;51.840;12.184;2022-08-19T04:10:21;20.10;99.90
2893;DHT22;1456;51.840;12.184;2022-08-19T04:12:48;20.20;99.90
2893;DHT22;1456;51.840;12.184;2022-08-19T04:15:14;20.20;99.90
2893;DHT22;1456;51.840;12.184;2022-08-19T04:17:40;20.20;99.90
2893;DHT22;1456;51.840;12.184;2022-08-19T04:20:06;20.20;99.90
2893;DHT22;1456;51.840;12.184;2022-08-19T04:22:31;20.30;99.90
2893;DHT22;1456;51.840;12.184;2022-08-19T04:24:57;20.30;99.90
2893;DHT22;1456;51.840;12.184;2022-08-19T04:27:22;20.30;99.90
2893;DHT22;1456;51.840;12.184;2022-08-19T04:29:48;20.30;99.90
2893;DHT22;1456;51.840;12.184;2022-08-19T04:32:13;20.30;99.90
2893;DHT22;1456;51.840;12.184;2022-08-19T04:34:41;20.20;99.90
2893;DHT22;1456;51.840;12.184;2022-08-19T04:37:08;20.20;99.90
2893;DHT22;1456;51.840;12.184;2022-08-19T04:39:38;20.20;99.90
2893;DHT22;1456;51.840;12.184;2022-08-19T04:42:23;20.10;99.90
2893;DHT22;1456;51.840;12.184;2022-08-19T04:45:10;20.20;99.90
2893;DHT22;1456;51.840;12.184;2022-08-19T04:47:40;20.10;99.90
2893;DHT22;1456;51.840;12.184;2022-08-19T04:50:06;20.10;99.90
2893;DHT22;1456;51.840;12.184;2022-08-19T04:52:33;20.10;99.90
2893;DHT22;1456;51.840;12.184;2022-08-19T04:54:58;20.00;99.90
2893;DHT22;1456;51.840;12.184;2022-08-19T04:57:26;20.00;99.90
2893;DHT22;1456;51.840;12.184;2022-08-19T04:59:56;20.00;99.90
2893;DHT22;1456;51.840;12.184;2022-08-19T05:02:22;20.00;99.90
2893;DHT22;1456;51.840;12.184;2022-08-19T05:04:57;20.00;99.90
2893;DHT22;1456;51.840;12.184;2022-08-19T05:07:23;20.00;99.90
2893;DHT22;1456;51.840;12.184;2022-08-19T05:09:49;20.10;99.90
2893;DHT22;1456;51.840;12.184;2022-08-19T05:14:45;20.10;99.90
2893;DHT22;1456;51.840;12.184;2022-08-19T05:17:13;20.10;99.90
2893;DHT22;1456;51.840;12.184;2022-08-19T05:19:38;20.10;99.90
2893;DHT22;1456;51.840;12.184;2022-08-19T05:22:23;20.20;99.90
2893;DHT22;1456;51.840;12.184;2022-08-19T05:24:58;20.10;99.90
2893;DHT22;1456;51.840;12.184;2022-08-19T05:27:24;20.20;99.90
2893;DHT22;1456;51.840;12.184;2022-08-19T05:29:49;20.20;99.90
2893;DHT22;1456;51.840;12.184;2022-08-19T05:32:15;20.30;99.90
2893;DHT22;1456;51.840;12.184;2022-08-19T05:34:40;20.30;99.90
2893;DHT22;1456;51.840;12.184;2022-08-19T05:37:06;20.30;99.90
2893;DHT22;1456;51.840;12.184;2022-08-19T05:39:34;20.30;99.90
2893;DHT22;1456;51.840;12.184;2022-08-19T05:42:07;20.30;99.90
2893;DHT22;1456;51.840;12.184;2022-08-19T05:44:36;20.30;99.90
2893;DHT22;1456;51.840;12.184;2022-08-19T05:47:03;20.30;99.90
2893;DHT22;1456;51.840;12.184;2022-08-19T05:49:30;20.30;99.90
2893;DHT22;1456;51.840;12.184;2022-08-19T05:52:04;20.20;99.90
2893;DHT22;1456;51.840;12.184;2022-08-19T05:54:30;20.20;99.90
2893;DHT22;1456;51.840;12.184;2022-08-19T05:56:56;20.20;99.90
2893;DHT22;1456;51.840;12.184;2022-08-19T05:59:23;20.20;99.90
2893;DHT22;1456;51.840;12.184;2022-08-19T06:01:50;20.20;99.90
2893;DHT22;1456;51.840;12.184;2022-08-19T06:04:16;20.10;99.90
2893;DHT22;1456;51.840;12.184;2022-08-19T06:06:46;20.10;99.90
2893;DHT22;1456;51.840;12.184;2022-08-19T06:09:12;20.10;99.90
2893;DHT22;1456;51.840;12.184;2022-08-19T06:14:05;20.10;99.90
2893;DHT22;1456;51.840;12.184;2022-08-19T06:16:33;20.10;99.90
2893;DHT22;1456;51.840;12.184;2022-08-19T06:19:01;20.10;99.90
2893;DHT22;1456;51.840;12.184;2022-08-19T06:21:27;20.10;99.90
2893;DHT22;1456;51.840;12.184;2022-08-19T06:23:53;20.00;99.90
2893;DHT22;1456;51.840;12.184;2022-08-19T06:26:19;20.00;99.90
2893;DHT22;1456;51.840;12.184;2022-08-19T06:28:46;20.00;99.90
2893;DHT22;1456;51.840;12.184;2022-08-19T06:31:12;20.00;99.90
2893;DHT22;1456;51.840;12.184;2022-08-19T06:33:39;20.00;99.90
2893;DHT22;1456;51.840;12.184;2022-08-19T06:36:04;20.00;99.90
2893;DHT22;1456;51.840;12.184;2022-08-19T06:38:30;19.90;99.90
2893;DHT22;1456;51.840;12.184;2022-08-19T06:41:03;20.00;99.90
2893;DHT22;1456;51.840;12.184;2022-08-19T06:43:29;20.00;99.90
2893;DHT22;1456;51.840;12.184;2022-08-19T06:45:55;20.00;99.90
2893;DHT22;1456;51.840;12.184;2022-08-19T06:48:20;20.00;99.90
2893;DHT22;1456;51.840;12.184;2022-08-19T06:50:47;20.00;99.90
2893;DHT22;1456;51.840;12.184;2022-08-19T06:53:14;20.00;99.90
2893;DHT22;1456;51.840;12.184;2022-08-19T06:55:40;20.10;99.90
2893;DHT22;1456;51.840;12.184;2022-08-19T06:58:06;20.00;99.90
2893;DHT22;1456;51.840;12.184;2022-08-19T07:00:32;20.10;99.90
2893;DHT22;1456;51.840;12.184;2022-08-19T07:02:58;20.10;99.90
2893;DHT22;1456;51.840;12.184;2022-08-19T07:05:25;20.10;99.90
2893;DHT22;1456;51.840;12.184;2022-08-19T07:07:53;20.30;99.90
2893;DHT22;1456;51.840;12.184;2022-08-19T07:10:18;20.40;99.90
2893;DHT22;1456;51.840;12.184;2022-08-19T07:12:46;20.50;99.90
2893;DHT22;1456;51.840;12.184;2022-08-19T07:15:12;20.60;99.90
2893;DHT22;1456;51.840;12.184;2022-08-19T07:17:38;20.70;99.90
2893;DHT22;1456;51.840;12.184;2022-08-19T07:20:05;20.80;99.90
2893;DHT22;1456;51.840;12.184;2022-08-19T07:22:32;20.90;99.90
2893;DHT22;1456;51.840;12.184;2022-08-19T07:25:00;20.90;99.90
2893;DHT22;1456;51.840;12.184;2022-08-19T07:27:25;20.90;99.90
2893;DHT22;1456;51.840;12.184;2022-08-19T07:29:51;21.00;99.90
2893;DHT22;1456;51.840;12.184;2022-08-19T07:32:18;21.00;99.90
2893;DHT22;1456;51.840;12.184;2022-08-19T07:34:43;21.10;99.90
2893;DHT22;1456;51.840;12.184;2022-08-19T07:37:11;21.30;99.90
2893;DHT22;1456;51.840;12.184;2022-08-19T07:39:37;21.30;99.90
2893;DHT22;1456;51.840;12.184;2022-08-19T07:42:07;21.40;99.90
2893;DHT22;1456;51.840;12.184;2022-08-19T07:44:34;21.40;99.90
2893;DHT22;1456;51.840;12.184;2022-08-19T07:47:00;21.50;99.90
2893;DHT22;1456;51.840;12.184;2022-08-19T07:49:25;21.60;99.90
2893;DHT22;1456;51.840;12.184;2022-08-19T07:54:20;21.80;99.90
2893;DHT22;1456;51.840;12.184;2022-08-19T07:56:47;21.70;99.90
2893;DHT22;1456;51.840;12.184;2022-08-19T07:59:16;21.50;99.90
2893;DHT22;1456;51.840;12.184;2022-08-19T08:01:42;21.40;99.90
2893;DHT22;1456;51.840;12.184;2022-08-19T08:04:08;21.40;99.90
2893;DHT22;1456;51.840;12.184;2022-08-19T08:06:52;21.50;99.90
2893;DHT22;1456;51.840;12.184;2022-08-19T08:09:37;21.60;99.90
2893;DHT22;1456;51.840;12.184;2022-08-19T08:12:04;21.60;99.90
2893;DHT22;1456;51.840;12.184;2022-08-19T08:14:37;21.50;99.90
2893;DHT22;1456;51.840;12.184;2022-08-19T08:17:03;21.60;99.90
2893;DHT22;1456;51.840;12.184;2022-08-19T08:19:29;21.60;99.90
2893;DHT22;1456;51.840;12.184;2022-08-19T08:21:56;21.60;99.90
2893;DHT22;1456;51.840;12.184;2022-08-19T08:24:22;21.60;99.90
2893;DHT22;1456;51.840;12.184;2022-08-19T08:26:48;21.60;99.90
2893;DHT22;1456;51.840;12.184;2022-08-19T08:29:14;21.60;99.90
2893;DHT22;1456;51.840;12.184;2022-08-19T08:31:41;21.60;99.90
2893;DHT22;1456;51.840;12.184;2022-08-19T08:34:07;21.70;99.90
2893;DHT22;1456;51.840;12.184;2022-08-19T08:36:36;21.90;99.90
2893;DHT22;1456;51.840;12.184;2022-08-19T08:39:01;22.00;99.90
2893;DHT22;1456;51.840;12.184;2022-08-19T08:41:34;22.10;99.90
2893;DHT22;1456;51.840;12.184;2022-08-19T08:44:00;22.20;99.90
2893;DHT22;1456;51.840;12.184;2022-08-19T08:49:01;22.20;99.90
2893;DHT22;1456;51.840;12.184;2022-08-19T08:51:31;22.20;99.90
2893;DHT22;1456;51.840;12.184;2022-08-19T08:53:58;22.20;99.90
2893;DHT22;1456;51.840;12.184;2022-08-19T08:56:24;22.40;99.90
2893;DHT22;1456;51.840;12.184;2022-08-19T08:59:03;22.40;99.90
2893;DHT22;1456;51.840;12.184;2022-08-19T09:01:32;22.60;99.90
2893;DHT22;1456;51.840;12.184;2022-08-19T09:03:58;22.80;99.90
2893;DHT22;1456;51.840;12.184;2022-08-19T09:16:50;22.60;99.90
2893;DHT22;1456;51.840;12.184;2022-08-19T09:19:17;22.50;99.90
2893;DHT22;1456;51.840;12.184;2022-08-19T09:21:43;22.40;99.90
2893;DHT22;1456;51.840;12.184;2022-08-19T09:24:08;22.40;99.90
2893;DHT22;1456;51.840;12.184;2022-08-19T09:26:35;22.40;99.90
2893;DHT22;1456;51.840;12.184;2022-08-19T09:29:02;22.60;99.90
2893;DHT22;1456;51.840;12.184;2022-08-19T09:31:31;22.70;99.90
2893;DHT22;1456;51.840;12.184;2022-08-19T09:33:58;22.50;99.90
2893;DHT22;1456;51.840;12.184;2022-08-19T09:36:24;22.20;99.90
2893;DHT22;1456;51.840;12.184;2022-08-19T09:38:51;22.20;99.90
2893;DHT22;1456;51.840;12.184;2022-08-19T09:41:18;22.20;99.90
2893;DHT22;1456;51.840;12.184;2022-08-19T09:43:44;22.10;99.90
2893;DHT22;1456;51.840;12.184;2022-08-19T09:46:11;22.20;99.90
2893;DHT22;1456;51.840;12.184;2022-08-19T09:48:37;22.30;99.90
2893;DHT22;1456;51.840;12.184;2022-08-19T09:51:07;22.40;99.90
2893;DHT22;1456;51.840;12.184;2022-08-19T09:53:34;22.50;99.90
2893;DHT22;1456;51.840;12.184;2022-08-19T09:56:00;22.50;99.90
2893;DHT22;1456;51.840;12.184;2022-08-19T09:58:26;22.60;99.90
2893;DHT22;1456;51.840;12.184;2022-08-19T10:00:53;22.60;99.90
2893;DHT22;1456;51.840;12.184;2022-08-19T10:03:19;22.60;99.90
2893;DHT22;1456;51.840;12.184;2022-08-19T10:05:45;22.60;99.90
2893;DHT22;1456;51.840;12.184;2022-08-19T10:08:13;22.60;99.90
2893;DHT22;1456;51.840;12.184;2022-08-19T10:10:40;22.60;99.90
2893;DHT22;1456;51.840;12.184;2022-08-19T10:13:08;22.70;99.90
2893;DHT22;1456;51.840;12.184;2022-08-19T10:15:34;22.70;99.90
2893;DHT22;1456;51.840;12.184;2022-08-19T10:18:00;22.70;99.90
2893;DHT22;1456;51.840;12.184;2022-08-19T10:20:26;22.60;99.90
2893;DHT22;1456;51.840;12.184;2022-08-19T10:22:52;22.70;99.90
2893;DHT22;1456;51.840;12.184;2022-08-19T10:25:18;22.70;99.90
2893;DHT22;1456;51.840;12.184;2022-08-19T10:27:43;22.90;99.90
2893;DHT22;1456;51.840;12.184;2022-08-19T10:30:09;22.90;99.90
2893;DHT22;1456;51.840;12.184;2022-08-19T10:32:35;22.80;99.90
2893;DHT22;1456;51.840;12.184;2022-08-19T10:35:01;22.90;99.90
2893;DHT22;1456;51.840;12.184;2022-08-19T10:37:26;23.00;99.90
2893;DHT22;1456;51.840;12.184;2022-08-19T10:39:52;23.30;99.90
2893;DHT22;1456;51.840;12.184;2022-08-19T10:42:17;23.50;99.90
2893;DHT22;1456;51.840;12.184;2022-08-19T10:44:43;23.60;99.90
2893;DHT22;1456;51.840;12.184;2022-08-19T10:47:09;23.70;99.90
2893;DHT22;1456;51.840;12.184;2022-08-19T10:49:35;24.00;99.90
2893;DHT22;1456;51.840;12.184;2022-08-19T10:52:20;24.50;99.90
2893;DHT22;1456;51.840;12.184;2022-08-19T10:54:59;24.80;99.90
2893;DHT22;1456;51.840;12.184;2022-08-19T10:57:43;25.20;99.90
2893;DHT22;1456;51.840;12.184;2022-08-19T11:00:09;25.50;99.90
2893;DHT22;1456;51.840;12.184;2022-08-19T11:02:35;25.20;99.90
2893;DHT22;1456;51.840;12.184;2022-08-19T11:05:01;25.30;99.90
2893;DHT22;1456;51.840;12.184;2022-08-19T11:07:26;25.30;99.90
2893;DHT22;1456;51.840;12.184;2022-08-19T11:09:52;25.30;99.90
2893;DHT22;1456;51.840;12.184;2022-08-19T11:12:17;25.90;99.90
2893;DHT22;1456;51.840;12.184;2022-08-19T11:14:44;26.00;99.90
2893;DHT22;1456;51.840;12.184;2022-08-19T11:17:10;26.20;99.90
2893;DHT22;1456;51.840;12.184;2022-08-19T11:19:38;26.40;99.90
2893;DHT22;1456;51.840;12.184;2022-08-19T11:22:06;27.00;99.90
2893;DHT22;1456;51.840;12.184;2022-08-19T11:24:33;27.30;99.90
2893;DHT22;1456;51.840;12.184;2022-08-19T11:27:03;27.20;99.90
2893;DHT22;1456;51.840;12.184;2022-08-19T11:29:29;26.90;99.90
2893;DHT22;1456;51.840;12.184;2022-08-19T11:31:55;26.40;99.90
2893;DHT22;1456;51.840;12.184;2022-08-19T11:34:22;26.00;99.90
2893;DHT22;1456;51.840;12.184;2022-08-19T11:36:48;25.80;99.90
2893;DHT22;1456;51.840;12.184;2022-08-19T11:39:16;25.60;99.90
2893;DHT22;1456;51.840;12.184;2022-08-19T11:41:43;25.40;99.90
2893;DHT22;1456;51.840;12.184;2022-08-19T11:44:09;25.40;99.90
2893;DHT22;1456;51.840;12.184;2022-08-19T11:46:36;25.30;99.90
2893;DHT22;1456;51.840;12.184;2022-08-19T11:49:03;25.30;99.90
2893;DHT22;1456;51.840;12.184;2022-08-19T11:51:29;25.20;99.90
2893;DHT22;1456;51.840;12.184;2022-08-19T11:53:55;25.00;99.90
2893;DHT22;1456;51.840;12.184;2022-08-19T11:56:22;24.90;99.90
2893;DHT22;1456;51.840;12.184;2022-08-19T11:58:49;25.10;99.90
2893;DHT22;1456;51.840;12.184;2022-08-19T12:01:16;25.40;99.90
2893;DHT22;1456;51.840;12.184;2022-08-19T12:03:42;25.60;99.90
2893;DHT22;1456;51.840;12.184;2022-08-19T12:06:10;25.50;99.90
2893;DHT22;1456;51.840;12.184;2022-08-19T12:08:39;25.50;99.90
2893;DHT22;1456;51.840;12.184;2022-08-19T12:11:05;25.70;99.90
2893;DHT22;1456;51.840;12.184;2022-08-19T12:13:34;25.80;99.90
2893;DHT22;1456;51.840;12.184;2022-08-19T12:16:00;26.00;99.90
2893;DHT22;1456;51.840;12.184;2022-08-19T12:18:26;26.50;99.90
2893;DHT22;1456;51.840;12.184;2022-08-19T12:20:52;27.10;99.90
2893;DHT22;1456;51.840;12.184;2022-08-19T12:23:19;27.40;99.90
2893;DHT22;1456;51.840;12.184;2022-08-19T12:25:46;27.60;99.90
2893;DHT22;1456;51.840;12.184;2022-08-19T12:28:15;27.90;99.90
2893;DHT22;1456;51.840;12.184;2022-08-19T12:30:42;27.60;99.90
2893;DHT22;1456;51.840;12.184;2022-08-19T12:33:08;27.50;99.90
2893;DHT22;1456;51.840;12.184;2022-08-19T12:35:33;27.40;99.90
2893;DHT22;1456;51.840;12.184;2022-08-19T12:37:59;27.10;99.90
2893;DHT22;1456;51.840;12.184;2022-08-19T12:40:25;26.70;99.90
2893;DHT22;1456;51.840;12.184;2022-08-19T12:42:50;26.50;99.90
2893;DHT22;1456;51.840;12.184;2022-08-19T12:45:17;26.50;99.90
2893;DHT22;1456;51.840;12.184;2022-08-19T12:47:44;26.70;99.90
2893;DHT22;1456;51.840;12.184;2022-08-19T12:50:11;26.40;99.90
2893;DHT22;1456;51.840;12.184;2022-08-19T12:52:38;26.30;99.90
2893;DHT22;1456;51.840;12.184;2022-08-19T12:55:04;26.10;99.90
2893;DHT22;1456;51.840;12.184;2022-08-19T12:57:30;25.90;99.90
2893;DHT22;1456;51.840;12.184;2022-08-19T13:00:10;25.90;99.90
2893;DHT22;1456;51.840;12.184;2022-08-19T13:02:38;25.90;99.90
2893;DHT22;1456;51.840;12.184;2022-08-19T13:05:05;25.80;99.90
2893;DHT22;1456;51.840;12.184;2022-08-19T13:07:32;25.50;99.90
2893;DHT22;1456;51.840;12.184;2022-08-19T13:09:57;25.30;99.90
2893;DHT22;1456;51.840;12.184;2022-08-19T13:12:23;25.10;99.90
2893;DHT22;1456;51.840;12.184;2022-08-19T13:14:55;25.10;99.90
2893;DHT22;1456;51.840;12.184;2022-08-19T13:17:21;25.30;99.90
2893;DHT22;1456;51.840;12.184;2022-08-19T13:19:48;25.10;99.90
2893;DHT22;1456;51.840;12.184;2022-08-19T13:22:14;25.10;99.90
2893;DHT22;1456;51.840;12.184;2022-08-19T13:24:40;25.30;99.90
2893;DHT22;1456;51.840;12.184;2022-08-19T13:27:07;25.50;99.90
2893;DHT22;1456;51.840;12.184;2022-08-19T13:29:33;26.30;99.90
2893;DHT22;1456;51.840;12.184;2022-08-19T13:32:17;27.40;99.90
2893;DHT22;1456;51.840;12.184;2022-08-19T13:35:03;28.50;99.90
2893;DHT22;1456;51.840;12.184;2022-08-19T13:37:28;29.20;99.90
2893;DHT22;1456;51.840;12.184;2022-08-19T13:40:13;29.20;99.90
2893;DHT22;1456;51.840;12.184;2022-08-19T13:42:44;29.40;99.90
2893;DHT22;1456;51.840;12.184;2022-08-19T13:45:11;29.20;99.90
2893;DHT22;1456;51.840;12.184;2022-08-19T13:47:38;29.10;99.90
2893;DHT22;1456;51.840;12.184;2022-08-19T13:50:10;29.50;99.90
2893;DHT22;1456;51.840;12.184;2022-08-19T13:52:36;29.70;99.80
2893;DHT22;1456;51.840;12.184;2022-08-19T13:55:02;29.50;99.40
2893;DHT22;1456;51.840;12.184;2022-08-19T13:57:29;29.30;99.90
2893;DHT22;1456;51.840;12.184;2022-08-19T13:59:55;29.30;99.70
2893;DHT22;1456;51.840;12.184;2022-08-19T14:02:21;28.80;99.90
2893;DHT22;1456;51.840;12.184;2022-08-19T14:04:48;28.70;99.90
2893;DHT22;1456;51.840;12.184;2022-08-19T14:07:14;28.60;99.90
2893;DHT22;1456;51.840;12.184;2022-08-19T14:09:39;28.20;99.90
2893;DHT22;1456;51.840;12.184;2022-08-19T14:12:05;27.50;99.90
2893;DHT22;1456;51.840;12.184;2022-08-19T14:14:30;27.30;99.90
2893;DHT22;1456;51.840;12.184;2022-08-19T14:16:57;27.00;99.90
2893;DHT22;1456;51.840;12.184;2022-08-19T14:19:23;26.60;99.90
2893;DHT22;1456;51.840;12.184;2022-08-19T14:21:48;26.40;99.90
2893;DHT22;1456;51.840;12.184;2022-08-19T14:24:14;26.10;99.90
2893;DHT22;1456;51.840;12.184;2022-08-19T14:26:39;25.80;99.90
2893;DHT22;1456;51.840;12.184;2022-08-19T14:29:05;25.60;99.90
2893;DHT22;1456;51.840;12.184;2022-08-19T14:31:31;25.50;99.90
2893;DHT22;1456;51.840;12.184;2022-08-19T14:33:57;25.40;99.90
2893;DHT22;1456;51.840;12.184;2022-08-19T14:36:22;25.50;99.90
2893;DHT22;1456;51.840;12.184;2022-08-19T14:38:48;25.60;99.90
2893;DHT22;1456;51.840;12.184;2022-08-19T14:41:18;25.80;99.90
2893;DHT22;1456;51.840;12.184;2022-08-19T14:43:46;25.90;99.90
2893;DHT22;1456;51.840;12.184;2022-08-19T14:46:16;26.10;99.90
2893;DHT22;1456;51.840;12.184;2022-08-19T14:48:42;26.00;99.90
2893;DHT22;1456;51.840;12.184;2022-08-19T14:51:08;25.90;99.90
2893;DHT22;1456;51.840;12.184;2022-08-19T14:53:34;25.90;99.90
2893;DHT22;1456;51.840;12.184;2022-08-19T14:56:00;26.00;99.90
2893;DHT22;1456;51.840;12.184;2022-08-19T14:58:27;25.90;99.90
2893;DHT22;1456;51.840;12.184;2022-08-19T15:00:53;25.80;99.90
2893;DHT22;1456;51.840;12.184;2022-08-19T15:03:18;25.70;99.90
2893;DHT22;1456;51.840;12.184;2022-08-19T15:05:44;25.60;99.90
2893;DHT22;1456;51.840;12.184;2022-08-19T15:08:09;25.50;99.90
2893;DHT22;1456;51.840;12.184;2022-08-19T15:10:35;25.50;99.90
2893;DHT22;1456;51.840;12.184;2022-08-19T15:13:01;25.20;99.90
2893;DHT22;1456;51.840;12.184;2022-08-19T15:15:26;25.00;99.90
2893;DHT22;1456;51.840;12.184;2022-08-19T15:17:52;24.80;99.90
2893;DHT22;1456;51.840;12.184;2022-08-19T15:20:19;24.70;99.90
2893;DHT22;1456;51.840;12.184;2022-08-19T15:22:47;24.50;99.90
2893;DHT22;1456;51.840;12.184;2022-08-19T15:25:14;24.50;99.90
2893;DHT22;1456;51.840;12.184;2022-08-19T15:27:40;24.50;99.90
2893;DHT22;1456;51.840;12.184;2022-08-19T15:30:06;24.60;99.90
2893;DHT22;1456;51.840;12.184;2022-08-19T15:32:33;24.50;99.90
2893;DHT22;1456;51.840;12.184;2022-08-19T15:35:00;24.50;99.90
2893;DHT22;1456;51.840;12.184;2022-08-19T15:37:27;24.50;99.90
2893;DHT22;1456;51.840;12.184;2022-08-19T15:39:53;24.50;99.90
2893;DHT22;1456;51.840;12.184;2022-08-19T15:42:18;24.50;99.90
2893;DHT22;1456;51.840;12.184;2022-08-19T15:44:45;24.50;99.90
2893;DHT22;1456;51.840;12.184;2022-08-19T15:47:12;24.60;99.90
2893;DHT22;1456;51.840;12.184;2022-08-19T15:49:37;24.60;99.90
2893;DHT22;1456;51.840;12.184;2022-08-19T15:52:03;24.60;99.90
2893;DHT22;1456;51.840;12.184;2022-08-19T15:54:31;24.60;99.90
2893;DHT22;1456;51.840;12.184;2022-08-19T15:56:56;24.50;99.90
2893;DHT22;1456;51.840;12.184;2022-08-19T15:59:41;24.50;99.90
2893;DHT22;1456;51.840;12.184;2022-08-19T16:02:27;24.50;99.90
2893;DHT22;1456;51.840;12.184;2022-08-19T16:05:11;24.50;99.90
2893;DHT22;1456;51.840;12.184;2022-08-19T16:07:56;24.50;99.90
2893;DHT22;1456;51.840;12.184;2022-08-19T16:10:22;24.40;99.90